sensor_id;sensor_type;location;lat;lon;timestamp;P1;durP1;ratioP1;P2;durP2;ratioP2
8714;SDS011;4394;51.208;8.904;2023-09-19T00:01:28;1.40;;;1.30;;
8714;SDS011;4394;51.208;8.904;2023-09-19T00:04:18;1.70;;;1.30;;
8714;SDS011;4394;51.208;8.904;2023-09-19T00:07:09;1.47;;;1.37;;
8714;SDS011;4394;51.208;8.904;2023-09-19T00:09:57;1.60;;;1.40;;
8714;SDS011;4394;51.208;8.904;2023-09-19T00:12:47;2.63;;;1.73;;
8714;SDS011;4394;51.208;8.904;2023-09-19T00:15:38;1.70;;;1.50;;
8714;SDS011;4394;51.208;8.904;2023-09-19T00:18:29;1.80;;;1.57;;
8714;SDS011;4394;51.208;8.904;2023-09-19T00:21:20;2.23;;;1.87;;
8714;SDS011;4394;51.208;8.904;2023-09-19T00:24:08;3.10;;;1.60;;
8714;SDS011;4394;51.208;8.904;2023-09-19T00:26:58;3.03;;;1.47;;
8714;SDS011;4394;51.208;8.904;2023-09-19T00:29:46;1.67;;;1.47;;
8714;SDS011;4394;51.208;8.904;2023-09-19T00:32:34;1.60;;;1.50;;
8714;SDS011;4394;51.208;8.904;2023-09-19T00:35:23;2.73;;;1.67;;
8714;SDS011;4394;51.208;8.904;2023-09-19T00:38:13;2.83;;;1.77;;
8714;SDS011;4394;51.208;8.904;2023-09-19T00:41:03;5.38;;;1.85;;
8714;SDS011;4394;51.208;8.904;2023-09-19T00:43:51;2.13;;;1.50;;
8714;SDS011;4394;51.208;8.904;2023-09-19T00:46:39;3.17;;;1.70;;
8714;SDS011;4394;51.208;8.904;2023-09-19T00:49:28;2.07;;;1.70;;
8714;SDS011;4394;51.208;8.904;2023-09-19T00:52:17;2.15;;;1.58;;
8714;SDS011;4394;51.208;8.904;2023-09-19T00:55:08;3.63;;;1.50;;
8714;SDS011;4394;51.208;8.904;2023-09-19T00:57:57;1.67;;;1.57;;
8714;SDS011;4394;51.208;8.904;2023-09-19T01:00:46;1.60;;;1.37;;
8714;SDS011;4394;51.208;8.904;2023-09-19T01:03:35;2.90;;;1.50;;
8714;SDS011;4394;51.208;8.904;2023-09-19T01:06:24;2.23;;;1.70;;
8714;SDS011;4394;51.208;8.904;2023-09-19T01:09:12;2.27;;;1.70;;
8714;SDS011;4394;51.208;8.904;2023-09-19T01:12:02;2.00;;;1.40;;
8714;SDS011;4394;51.208;8.904;2023-09-19T01:14:55;2.83;;;1.50;;
8714;SDS011;4394;51.208;8.904;2023-09-19T01:17:53;2.27;;;1.50;;
8714;SDS011;4394;51.208;8.904;2023-09-19T01:20:53;4.20;;;1.80;;
8714;SDS011;4394;51.208;8.904;2023-09-19T01:27:22;3.53;;;1.90;;
8714;SDS011;4394;51.208;8.904;2023-09-19T01:30:26;3.43;;;2.00;;
8714;SDS011;4394;51.208;8.904;2023-09-19T01:33:18;2.40;;;2.17;;
8714;SDS011;4394;51.208;8.904;2023-09-19T01:36:06;2.47;;;2.20;;
8714;SDS011;4394;51.208;8.904;2023-09-19T01:38:55;3.20;;;2.40;;
8714;SDS011;4394;51.208;8.904;2023-09-19T01:41:47;3.20;;;2.40;;
8714;SDS011;4394;51.208;8.904;2023-09-19T01:44:44;3.27;;;2.63;;
8714;SDS011;4394;51.208;8.904;2023-09-19T01:47:46;4.20;;;2.77;;
8714;SDS011;4394;51.208;8.904;2023-09-19T01:50:47;3.13;;;2.60;;
8714;SDS011;4394;51.208;8.904;2023-09-19T01:53:43;3.80;;;2.90;;
8714;SDS011;4394;51.208;8.904;2023-09-19T01:56:39;4.07;;;3.20;;
8714;SDS011;4394;51.208;8.904;2023-09-19T01:59:35;4.53;;;3.20;;
8714;SDS011;4394;51.208;8.904;2023-09-19T02:02:29;3.73;;;3.43;;
8714;SDS011;4394;51.208;8.904;2023-09-19T02:05:23;5.47;;;3.30;;
8714;SDS011;4394;51.208;8.904;2023-09-19T02:08:11;3.80;;;3.40;;
8714;SDS011;4394;51.208;8.904;2023-09-19T02:11:03;3.43;;;3.13;;
8714;SDS011;4394;51.208;8.904;2023-09-19T02:13:52;4.37;;;3.47;;
8714;SDS011;4394;51.208;8.904;2023-09-19T02:16:41;5.10;;;2.87;;
8714;SDS011;4394;51.208;8.904;2023-09-19T02:19:29;4.70;;;2.97;;
8714;SDS011;4394;51.208;8.904;2023-09-19T02:22:19;4.87;;;3.30;;
8714;SDS011;4394;51.208;8.904;2023-09-19T02:25:07;3.20;;;2.77;;
8714;SDS011;4394;51.208;8.904;2023-09-19T02:27:56;4.13;;;2.93;;
8714;SDS011;4394;51.208;8.904;2023-09-19T02:30:47;4.87;;;2.93;;
8714;SDS011;4394;51.208;8.904;2023-09-19T02:33:35;5.03;;;3.07;;
8714;SDS011;4394;51.208;8.904;2023-09-19T02:36:24;4.60;;;3.03;;
8714;SDS011;4394;51.208;8.904;2023-09-19T02:39:13;4.27;;;3.07;;
8714;SDS011;4394;51.208;8.904;2023-09-19T02:42:01;4.03;;;2.90;;
8714;SDS011;4394;51.208;8.904;2023-09-19T02:44:51;5.03;;;3.30;;
8714;SDS011;4394;51.208;8.904;2023-09-19T02:47:39;5.40;;;3.27;;
8714;SDS011;4394;51.208;8.904;2023-09-19T02:50:28;4.07;;;3.00;;
8714;SDS011;4394;51.208;8.904;2023-09-19T02:53:16;4.63;;;2.90;;
8714;SDS011;4394;51.208;8.904;2023-09-19T02:56:06;3.80;;;3.13;;
8714;SDS011;4394;51.208;8.904;2023-09-19T02:58:55;4.13;;;2.90;;
8714;SDS011;4394;51.208;8.904;2023-09-19T03:01:44;6.30;;;3.33;;
8714;SDS011;4394;51.208;8.904;2023-09-19T03:04:34;5.70;;;3.60;;
8714;SDS011;4394;51.208;8.904;2023-09-19T03:07:22;6.00;;;3.17;;
8714;SDS011;4394;51.208;8.904;2023-09-19T03:10:11;4.07;;;3.00;;
8714;SDS011;4394;51.208;8.904;2023-09-19T03:13:02;4.47;;;3.20;;
8714;SDS011;4394;51.208;8.904;2023-09-19T03:15:53;7.47;;;3.17;;
8714;SDS011;4394;51.208;8.904;2023-09-19T03:18:43;4.53;;;2.97;;
8714;SDS011;4394;51.208;8.904;2023-09-19T03:21:31;4.83;;;3.07;;
8714;SDS011;4394;51.208;8.904;2023-09-19T03:24:19;3.07;;;2.60;;
8714;SDS011;4394;51.208;8.904;2023-09-19T03:27:08;5.40;;;2.90;;
8714;SDS011;4394;51.208;8.904;2023-09-19T03:29:58;9.97;;;3.63;;
8714;SDS011;4394;51.208;8.904;2023-09-19T03:32:46;4.63;;;2.93;;
8714;SDS011;4394;51.208;8.904;2023-09-19T03:35:37;5.93;;;3.30;;
8714;SDS011;4394;51.208;8.904;2023-09-19T03:38:26;5.80;;;3.03;;
8714;SDS011;4394;51.208;8.904;2023-09-19T03:41:15;4.63;;;2.93;;
8714;SDS011;4394;51.208;8.904;2023-09-19T03:44:04;5.97;;;2.90;;
8714;SDS011;4394;51.208;8.904;2023-09-19T03:46:53;6.73;;;3.00;;
8714;SDS011;4394;51.208;8.904;2023-09-19T03:49:43;4.77;;;2.80;;
8714;SDS011;4394;51.208;8.904;2023-09-19T03:52:31;7.40;;;2.67;;
8714;SDS011;4394;51.208;8.904;2023-09-19T03:55:18;4.73;;;2.80;;
8714;SDS011;4394;51.208;8.904;2023-09-19T03:58:06;6.40;;;3.10;;
8714;SDS011;4394;51.208;8.904;2023-09-19T04:00:55;4.40;;;2.88;;
8714;SDS011;4394;51.208;8.904;2023-09-19T04:03:44;7.77;;;2.40;;
8714;SDS011;4394;51.208;8.904;2023-09-19T04:06:36;3.70;;;2.40;;
8714;SDS011;4394;51.208;8.904;2023-09-19T04:09:24;3.60;;;2.30;;
8714;SDS011;4394;51.208;8.904;2023-09-19T04:12:12;4.27;;;2.80;;
8714;SDS011;4394;51.208;8.904;2023-09-19T04:15:03;4.45;;;2.90;;
8714;SDS011;4394;51.208;8.904;2023-09-19T04:17:52;5.43;;;2.97;;
8714;SDS011;4394;51.208;8.904;2023-09-19T04:20:41;9.57;;;3.03;;
8714;SDS011;4394;51.208;8.904;2023-09-19T04:23:35;5.57;;;2.90;;
8714;SDS011;4394;51.208;8.904;2023-09-19T04:26:24;5.20;;;2.60;;
8714;SDS011;4394;51.208;8.904;2023-09-19T04:29:12;6.03;;;3.10;;
8714;SDS011;4394;51.208;8.904;2023-09-19T04:32:00;3.93;;;2.70;;
8714;SDS011;4394;51.208;8.904;2023-09-19T04:34:50;3.53;;;2.50;;
8714;SDS011;4394;51.208;8.904;2023-09-19T04:37:42;4.60;;;2.90;;
8714;SDS011;4394;51.208;8.904;2023-09-19T04:40:30;4.87;;;2.70;;
8714;SDS011;4394;51.208;8.904;2023-09-19T04:43:19;7.93;;;3.03;;
8714;SDS011;4394;51.208;8.904;2023-09-19T04:46:07;4.73;;;2.93;;
8714;SDS011;4394;51.208;8.904;2023-09-19T04:48:55;4.87;;;2.60;;
8714;SDS011;4394;51.208;8.904;2023-09-19T04:51:43;5.33;;;2.80;;
8714;SDS011;4394;51.208;8.904;2023-09-19T04:54:34;5.47;;;2.83;;
8714;SDS011;4394;51.208;8.904;2023-09-19T04:57:24;4.80;;;3.37;;
8714;SDS011;4394;51.208;8.904;2023-09-19T05:00:12;4.53;;;3.33;;
8714;SDS011;4394;51.208;8.904;2023-09-19T05:03:02;6.40;;;2.93;;
8714;SDS011;4394;51.208;8.904;2023-09-19T05:05:52;7.60;;;2.77;;
8714;SDS011;4394;51.208;8.904;2023-09-19T05:08:40;5.67;;;3.60;;
8714;SDS011;4394;51.208;8.904;2023-09-19T05:11:30;6.70;;;2.80;;
8714;SDS011;4394;51.208;8.904;2023-09-19T05:14:18;5.30;;;3.20;;
8714;SDS011;4394;51.208;8.904;2023-09-19T05:17:07;4.17;;;3.17;;
8714;SDS011;4394;51.208;8.904;2023-09-19T05:19:55;6.43;;;3.77;;
8714;SDS011;4394;51.208;8.904;2023-09-19T05:22:44;6.57;;;3.40;;
8714;SDS011;4394;51.208;8.904;2023-09-19T05:25:32;5.22;;;3.30;;
8714;SDS011;4394;51.208;8.904;2023-09-19T05:28:25;5.70;;;3.40;;
8714;SDS011;4394;51.208;8.904;2023-09-19T05:31:14;5.63;;;3.10;;
8714;SDS011;4394;51.208;8.904;2023-09-19T05:34:02;5.97;;;3.70;;
8714;SDS011;4394;51.208;8.904;2023-09-19T05:36:50;4.50;;;3.50;;
8714;SDS011;4394;51.208;8.904;2023-09-19T05:39:40;5.30;;;3.10;;
8714;SDS011;4394;51.208;8.904;2023-09-19T05:42:28;4.63;;;3.07;;
8714;SDS011;4394;51.208;8.904;2023-09-19T05:45:18;5.20;;;3.33;;
8714;SDS011;4394;51.208;8.904;2023-09-19T05:48:09;6.20;;;3.07;;
8714;SDS011;4394;51.208;8.904;2023-09-19T05:50:59;5.27;;;3.20;;
8714;SDS011;4394;51.208;8.904;2023-09-19T05:53:48;8.50;;;3.20;;
8714;SDS011;4394;51.208;8.904;2023-09-19T05:56:36;4.63;;;3.33;;
8714;SDS011;4394;51.208;8.904;2023-09-19T05:59:24;4.53;;;3.10;;
8714;SDS011;4394;51.208;8.904;2023-09-19T06:02:13;5.47;;;3.57;;
8714;SDS011;4394;51.208;8.904;2023-09-19T06:05:01;5.43;;;3.20;;
8714;SDS011;4394;51.208;8.904;2023-09-19T06:07:52;5.50;;;3.27;;
8714;SDS011;4394;51.208;8.904;2023-09-19T06:10:40;4.40;;;3.27;;
8714;SDS011;4394;51.208;8.904;2023-09-19T06:13:28;6.17;;;3.40;;
8714;SDS011;4394;51.208;8.904;2023-09-19T06:16:16;8.33;;;3.30;;
8714;SDS011;4394;51.208;8.904;2023-09-19T06:19:06;4.40;;;2.67;;
8714;SDS011;4394;51.208;8.904;2023-09-19T06:21:55;8.27;;;3.53;;
8714;SDS011;4394;51.208;8.904;2023-09-19T06:24:45;6.03;;;3.50;;
8714;SDS011;4394;51.208;8.904;2023-09-19T06:27:34;5.70;;;3.42;;
8714;SDS011;4394;51.208;8.904;2023-09-19T06:30:23;7.17;;;3.53;;
8714;SDS011;4394;51.208;8.904;2023-09-19T06:33:12;7.07;;;3.30;;
8714;SDS011;4394;51.208;8.904;2023-09-19T06:36:06;4.67;;;2.67;;
8714;SDS011;4394;51.208;8.904;2023-09-19T06:38:54;8.13;;;3.35;;
8714;SDS011;4394;51.208;8.904;2023-09-19T06:41:42;6.20;;;3.10;;
8714;SDS011;4394;51.208;8.904;2023-09-19T06:44:31;5.70;;;3.10;;
8714;SDS011;4394;51.208;8.904;2023-09-19T06:47:19;5.87;;;3.27;;
8714;SDS011;4394;51.208;8.904;2023-09-19T06:50:07;5.43;;;3.03;;
8714;SDS011;4394;51.208;8.904;2023-09-19T06:53:01;5.07;;;3.07;;
8714;SDS011;4394;51.208;8.904;2023-09-19T06:55:49;7.37;;;3.27;;
8714;SDS011;4394;51.208;8.904;2023-09-19T06:58:37;5.63;;;3.10;;
8714;SDS011;4394;51.208;8.904;2023-09-19T07:01:25;7.03;;;3.20;;
8714;SDS011;4394;51.208;8.904;2023-09-19T07:04:14;8.33;;;3.13;;
8714;SDS011;4394;51.208;8.904;2023-09-19T07:07:03;7.00;;;2.90;;
8714;SDS011;4394;51.208;8.904;2023-09-19T07:09:52;7.47;;;3.33;;
8714;SDS011;4394;51.208;8.904;2023-09-19T07:12:40;7.90;;;3.30;;
8714;SDS011;4394;51.208;8.904;2023-09-19T07:15:31;7.60;;;2.97;;
8714;SDS011;4394;51.208;8.904;2023-09-19T07:18:23;3.87;;;2.67;;
8714;SDS011;4394;51.208;8.904;2023-09-19T07:21:11;6.90;;;2.80;;
8714;SDS011;4394;51.208;8.904;2023-09-19T07:24:01;6.93;;;2.77;;
8714;SDS011;4394;51.208;8.904;2023-09-19T07:26:51;7.63;;;2.80;;
8714;SDS011;4394;51.208;8.904;2023-09-19T07:29:39;6.50;;;2.97;;
8714;SDS011;4394;51.208;8.904;2023-09-19T07:32:27;6.43;;;2.53;;
8714;SDS011;4394;51.208;8.904;2023-09-19T07:35:15;6.83;;;2.87;;
8714;SDS011;4394;51.208;8.904;2023-09-19T07:38:06;4.97;;;2.50;;
8714;SDS011;4394;51.208;8.904;2023-09-19T07:40:59;4.97;;;2.53;;
8714;SDS011;4394;51.208;8.904;2023-09-19T07:43:50;6.60;;;2.30;;
8714;SDS011;4394;51.208;8.904;2023-09-19T07:46:38;5.00;;;2.40;;
8714;SDS011;4394;51.208;8.904;2023-09-19T07:49:26;6.47;;;2.43;;
8714;SDS011;4394;51.208;8.904;2023-09-19T07:52:14;6.67;;;2.50;;
8714;SDS011;4394;51.208;8.904;2023-09-19T07:55:03;5.57;;;2.40;;
8714;SDS011;4394;51.208;8.904;2023-09-19T07:57:55;5.70;;;2.47;;
8714;SDS011;4394;51.208;8.904;2023-09-19T08:00:45;7.87;;;2.10;;
8714;SDS011;4394;51.208;8.904;2023-09-19T08:03:32;6.73;;;2.23;;
8714;SDS011;4394;51.208;8.904;2023-09-19T08:06:21;8.50;;;2.40;;
8714;SDS011;4394;51.208;8.904;2023-09-19T08:09:09;5.77;;;2.40;;
8714;SDS011;4394;51.208;8.904;2023-09-19T08:11:58;6.40;;;2.40;;
8714;SDS011;4394;51.208;8.904;2023-09-19T08:14:46;6.80;;;2.57;;
8714;SDS011;4394;51.208;8.904;2023-09-19T08:17:35;4.80;;;1.93;;
8714;SDS011;4394;51.208;8.904;2023-09-19T08:20:23;5.57;;;2.10;;
8714;SDS011;4394;51.208;8.904;2023-09-19T08:23:11;3.63;;;2.07;;
8714;SDS011;4394;51.208;8.904;2023-09-19T08:25:59;7.53;;;2.27;;
8714;SDS011;4394;51.208;8.904;2023-09-19T08:28:53;5.33;;;2.30;;
8714;SDS011;4394;51.208;8.904;2023-09-19T08:31:42;4.83;;;2.10;;
8714;SDS011;4394;51.208;8.904;2023-09-19T08:37:24;6.73;;;2.27;;
8714;SDS011;4394;51.208;8.904;2023-09-19T08:40:12;6.17;;;2.33;;
8714;SDS011;4394;51.208;8.904;2023-09-19T08:43:00;7.33;;;2.50;;
8714;SDS011;4394;51.208;8.904;2023-09-19T08:45:49;8.97;;;2.60;;
8714;SDS011;4394;51.208;8.904;2023-09-19T08:48:39;11.63;;;2.37;;
8714;SDS011;4394;51.208;8.904;2023-09-19T08:51:39;6.87;;;2.57;;
8714;SDS011;4394;51.208;8.904;2023-09-19T08:54:33;7.20;;;2.70;;
8714;SDS011;4394;51.208;8.904;2023-09-19T08:57:25;6.63;;;3.08;;
8714;SDS011;4394;51.208;8.904;2023-09-19T09:00:16;5.17;;;2.20;;
8714;SDS011;4394;51.208;8.904;2023-09-19T09:03:07;7.80;;;2.27;;
8714;SDS011;4394;51.208;8.904;2023-09-19T09:05:59;9.77;;;2.80;;
8714;SDS011;4394;51.208;8.904;2023-09-19T09:08:49;6.83;;;2.30;;
8714;SDS011;4394;51.208;8.904;2023-09-19T09:11:38;7.87;;;2.67;;
8714;SDS011;4394;51.208;8.904;2023-09-19T09:14:27;8.30;;;2.30;;
8714;SDS011;4394;51.208;8.904;2023-09-19T09:17:16;8.13;;;2.20;;
8714;SDS011;4394;51.208;8.904;2023-09-19T09:20:07;6.73;;;2.20;;
8714;SDS011;4394;51.208;8.904;2023-09-19T09:22:56;4.90;;;2.40;;
8714;SDS011;4394;51.208;8.904;2023-09-19T09:25:48;6.70;;;2.33;;
8714;SDS011;4394;51.208;8.904;2023-09-19T09:28:44;8.80;;;2.60;;
8714;SDS011;4394;51.208;8.904;2023-09-19T09:31:34;5.77;;;2.37;;
8714;SDS011;4394;51.208;8.904;2023-09-19T09:34:29;5.37;;;2.00;;
8714;SDS011;4394;51.208;8.904;2023-09-19T09:37:20;6.23;;;2.10;;
8714;SDS011;4394;51.208;8.904;2023-09-19T09:40:11;6.23;;;2.77;;
8714;SDS011;4394;51.208;8.904;2023-09-19T09:43:32;7.97;;;2.63;;
8714;SDS011;4394;51.208;8.904;2023-09-19T09:46:26;6.27;;;2.10;;
8714;SDS011;4394;51.208;8.904;2023-09-19T09:49:33;4.13;;;2.20;;
8714;SDS011;4394;51.208;8.904;2023-09-19T09:52:21;6.87;;;2.73;;
8714;SDS011;4394;51.208;8.904;2023-09-19T09:55:11;7.77;;;2.67;;
8714;SDS011;4394;51.208;8.904;2023-09-19T10:01:10;4.10;;;2.07;;
8714;SDS011;4394;51.208;8.904;2023-09-19T10:04:01;7.67;;;2.30;;
8714;SDS011;4394;51.208;8.904;2023-09-19T10:06:50;5.37;;;2.30;;
8714;SDS011;4394;51.208;8.904;2023-09-19T10:09:46;7.27;;;2.50;;
8714;SDS011;4394;51.208;8.904;2023-09-19T10:12:38;16.00;;;2.97;;
8714;SDS011;4394;51.208;8.904;2023-09-19T10:15:32;9.10;;;2.37;;
8714;SDS011;4394;51.208;8.904;2023-09-19T10:18:24;7.53;;;2.90;;
8714;SDS011;4394;51.208;8.904;2023-09-19T10:21:14;5.07;;;1.90;;
8714;SDS011;4394;51.208;8.904;2023-09-19T10:24:08;6.47;;;2.30;;
8714;SDS011;4394;51.208;8.904;2023-09-19T10:26:57;5.17;;;2.53;;
8714;SDS011;4394;51.208;8.904;2023-09-19T10:29:46;7.73;;;2.23;;
8714;SDS011;4394;51.208;8.904;2023-09-19T10:32:38;6.20;;;2.33;;
8714;SDS011;4394;51.208;8.904;2023-09-19T10:35:29;6.77;;;3.10;;
8714;SDS011;4394;51.208;8.904;2023-09-19T10:38:19;5.93;;;2.57;;
8714;SDS011;4394;51.208;8.904;2023-09-19T10:41:11;6.20;;;2.40;;
8714;SDS011;4394;51.208;8.904;2023-09-19T10:44:03;6.40;;;2.83;;
8714;SDS011;4394;51.208;8.904;2023-09-19T10:46:52;6.93;;;2.00;;
8714;SDS011;4394;51.208;8.904;2023-09-19T10:49:43;6.67;;;2.37;;
8714;SDS011;4394;51.208;8.904;2023-09-19T10:52:37;7.30;;;2.77;;
8714;SDS011;4394;51.208;8.904;2023-09-19T10:55:28;6.27;;;2.17;;
8714;SDS011;4394;51.208;8.904;2023-09-19T10:58:24;7.27;;;2.27;;
8714;SDS011;4394;51.208;8.904;2023-09-19T11:01:15;6.30;;;2.00;;
8714;SDS011;4394;51.208;8.904;2023-09-19T11:07:14;5.23;;;2.27;;
8714;SDS011;4394;51.208;8.904;2023-09-19T11:10:04;6.97;;;2.17;;
8714;SDS011;4394;51.208;8.904;2023-09-19T11:12:57;5.13;;;2.17;;
8714;SDS011;4394;51.208;8.904;2023-09-19T11:19:06;4.23;;;2.30;;
8714;SDS011;4394;51.208;8.904;2023-09-19T11:21:57;6.00;;;2.63;;
8714;SDS011;4394;51.208;8.904;2023-09-19T11:24:45;7.00;;;2.00;;
8714;SDS011;4394;51.208;8.904;2023-09-19T11:27:35;6.47;;;2.30;;
8714;SDS011;4394;51.208;8.904;2023-09-19T11:30:44;4.77;;;2.20;;
8714;SDS011;4394;51.208;8.904;2023-09-19T11:33:34;3.88;;;2.10;;
8714;SDS011;4394;51.208;8.904;2023-09-19T11:36:28;4.27;;;2.30;;
8714;SDS011;4394;51.208;8.904;2023-09-19T11:39:24;6.47;;;2.30;;
8714;SDS011;4394;51.208;8.904;2023-09-19T11:48:58;4.67;;;2.23;;
8714;SDS011;4394;51.208;8.904;2023-09-19T11:51:59;5.70;;;1.80;;
8714;SDS011;4394;51.208;8.904;2023-09-19T11:54:53;5.10;;;2.23;;
8714;SDS011;4394;51.208;8.904;2023-09-19T11:57:43;3.53;;;1.90;;
8714;SDS011;4394;51.208;8.904;2023-09-19T12:00:31;4.20;;;2.10;;
8714;SDS011;4394;51.208;8.904;2023-09-19T12:03:22;6.17;;;2.10;;
8714;SDS011;4394;51.208;8.904;2023-09-19T12:06:11;6.00;;;1.83;;
8714;SDS011;4394;51.208;8.904;2023-09-19T12:09:00;4.27;;;1.97;;
8714;SDS011;4394;51.208;8.904;2023-09-19T12:11:53;6.47;;;2.40;;
8714;SDS011;4394;51.208;8.904;2023-09-19T12:14:41;4.77;;;2.10;;
8714;SDS011;4394;51.208;8.904;2023-09-19T12:17:35;3.53;;;1.90;;
8714;SDS011;4394;51.208;8.904;2023-09-19T12:20:24;5.90;;;1.83;;
8714;SDS011;4394;51.208;8.904;2023-09-19T12:23:12;4.03;;;1.77;;
8714;SDS011;4394;51.208;8.904;2023-09-19T12:26:02;3.80;;;1.70;;
8714;SDS011;4394;51.208;8.904;2023-09-19T12:28:58;5.00;;;1.70;;
8714;SDS011;4394;51.208;8.904;2023-09-19T12:31:48;4.03;;;1.47;;
8714;SDS011;4394;51.208;8.904;2023-09-19T12:34:38;5.53;;;1.70;;
8714;SDS011;4394;51.208;8.904;2023-09-19T12:37:30;3.90;;;1.67;;
8714;SDS011;4394;51.208;8.904;2023-09-19T12:40:22;4.67;;;1.70;;
8714;SDS011;4394;51.208;8.904;2023-09-19T12:43:16;4.43;;;2.00;;
8714;SDS011;4394;51.208;8.904;2023-09-19T12:46:04;2.67;;;1.57;;
8714;SDS011;4394;51.208;8.904;2023-09-19T12:52:05;2.63;;;2.03;;
8714;SDS011;4394;51.208;8.904;2023-09-19T12:54:54;3.90;;;1.80;;
8714;SDS011;4394;51.208;8.904;2023-09-19T12:57:43;3.03;;;1.63;;
8714;SDS011;4394;51.208;8.904;2023-09-19T13:00:42;5.87;;;1.90;;
8714;SDS011;4394;51.208;8.904;2023-09-19T13:03:31;3.70;;;1.90;;
8714;SDS011;4394;51.208;8.904;2023-09-19T13:06:34;4.47;;;2.13;;
8714;SDS011;4394;51.208;8.904;2023-09-19T13:09:26;6.17;;;1.63;;
8714;SDS011;4394;51.208;8.904;2023-09-19T13:12:38;4.17;;;2.00;;
8714;SDS011;4394;51.208;8.904;2023-09-19T13:15:28;3.53;;;1.90;;
8714;SDS011;4394;51.208;8.904;2023-09-19T13:18:43;3.87;;;2.00;;
8714;SDS011;4394;51.208;8.904;2023-09-19T13:21:32;4.70;;;2.33;;
8714;SDS011;4394;51.208;8.904;2023-09-19T13:24:24;5.63;;;2.47;;
8714;SDS011;4394;51.208;8.904;2023-09-19T13:27:14;5.83;;;2.10;;
8714;SDS011;4394;51.208;8.904;2023-09-19T13:30:04;5.70;;;2.23;;
8714;SDS011;4394;51.208;8.904;2023-09-19T13:33:03;5.27;;;2.33;;
8714;SDS011;4394;51.208;8.904;2023-09-19T13:35:52;4.93;;;2.43;;
8714;SDS011;4394;51.208;8.904;2023-09-19T13:38:41;4.90;;;2.03;;
8714;SDS011;4394;51.208;8.904;2023-09-19T13:41:33;4.53;;;2.20;;
8714;SDS011;4394;51.208;8.904;2023-09-19T13:44:22;4.23;;;2.13;;
8714;SDS011;4394;51.208;8.904;2023-09-19T13:47:12;5.53;;;2.23;;
8714;SDS011;4394;51.208;8.904;2023-09-19T13:50:01;4.20;;;2.00;;
8714;SDS011;4394;51.208;8.904;2023-09-19T13:52:50;4.70;;;2.10;;
8714;SDS011;4394;51.208;8.904;2023-09-19T13:55:39;5.03;;;2.10;;
8714;SDS011;4394;51.208;8.904;2023-09-19T13:58:27;7.40;;;2.53;;
8714;SDS011;4394;51.208;8.904;2023-09-19T14:01:17;5.47;;;2.40;;
8714;SDS011;4394;51.208;8.904;2023-09-19T14:04:07;4.43;;;2.07;;
8714;SDS011;4394;51.208;8.904;2023-09-19T14:06:56;5.60;;;2.20;;
8714;SDS011;4394;51.208;8.904;2023-09-19T14:09:44;6.27;;;2.20;;
8714;SDS011;4394;51.208;8.904;2023-09-19T14:12:33;5.37;;;1.70;;
8714;SDS011;4394;51.208;8.904;2023-09-19T14:15:21;4.57;;;2.20;;
8714;SDS011;4394;51.208;8.904;2023-09-19T14:18:15;4.77;;;2.37;;
8714;SDS011;4394;51.208;8.904;2023-09-19T14:21:06;5.90;;;2.63;;
8714;SDS011;4394;51.208;8.904;2023-09-19T14:23:57;3.67;;;1.90;;
8714;SDS011;4394;51.208;8.904;2023-09-19T14:26:45;6.37;;;2.10;;
8714;SDS011;4394;51.208;8.904;2023-09-19T14:29:33;3.57;;;2.07;;
8714;SDS011;4394;51.208;8.904;2023-09-19T14:32:21;4.77;;;2.10;;
8714;SDS011;4394;51.208;8.904;2023-09-19T14:35:09;5.07;;;2.50;;
8714;SDS011;4394;51.208;8.904;2023-09-19T14:38:04;5.40;;;2.23;;
8714;SDS011;4394;51.208;8.904;2023-09-19T14:40:58;5.27;;;2.20;;
8714;SDS011;4394;51.208;8.904;2023-09-19T14:43:47;3.80;;;2.10;;
8714;SDS011;4394;51.208;8.904;2023-09-19T14:46:36;4.20;;;2.30;;
8714;SDS011;4394;51.208;8.904;2023-09-19T14:49:24;5.37;;;2.10;;
8714;SDS011;4394;51.208;8.904;2023-09-19T14:52:12;4.80;;;2.30;;
8714;SDS011;4394;51.208;8.904;2023-09-19T14:55:04;3.23;;;1.90;;
8714;SDS011;4394;51.208;8.904;2023-09-19T14:57:55;3.17;;;1.57;;
8714;SDS011;4394;51.208;8.904;2023-09-19T15:00:46;3.77;;;2.10;;
8714;SDS011;4394;51.208;8.904;2023-09-19T15:03:34;3.30;;;2.03;;
8714;SDS011;4394;51.208;8.904;2023-09-19T15:06:23;3.23;;;2.03;;
8714;SDS011;4394;51.208;8.904;2023-09-19T15:09:12;4.03;;;2.10;;
8714;SDS011;4394;51.208;8.904;2023-09-19T15:12:03;5.37;;;2.30;;
8714;SDS011;4394;51.208;8.904;2023-09-19T15:14:51;5.77;;;2.23;;
8714;SDS011;4394;51.208;8.904;2023-09-19T15:17:39;5.23;;;1.90;;
8714;SDS011;4394;51.208;8.904;2023-09-19T15:20:28;3.03;;;2.03;;
8714;SDS011;4394;51.208;8.904;2023-09-19T15:23:17;4.10;;;1.97;;
8714;SDS011;4394;51.208;8.904;2023-09-19T15:26:05;3.27;;;1.80;;
8714;SDS011;4394;51.208;8.904;2023-09-19T15:28:56;2.87;;;1.47;;
8714;SDS011;4394;51.208;8.904;2023-09-19T15:31:44;4.47;;;2.20;;
8714;SDS011;4394;51.208;8.904;2023-09-19T15:34:32;3.50;;;2.00;;
8714;SDS011;4394;51.208;8.904;2023-09-19T15:37:20;3.07;;;1.80;;
8714;SDS011;4394;51.208;8.904;2023-09-19T15:40:08;4.70;;;1.70;;
8714;SDS011;4394;51.208;8.904;2023-09-19T15:42:59;4.80;;;2.00;;
8714;SDS011;4394;51.208;8.904;2023-09-19T15:45:48;3.60;;;1.70;;
8714;SDS011;4394;51.208;8.904;2023-09-19T15:48:37;4.93;;;1.77;;
8714;SDS011;4394;51.208;8.904;2023-09-19T15:51:25;4.03;;;1.83;;
8714;SDS011;4394;51.208;8.904;2023-09-19T15:54:14;4.00;;;1.63;;
8714;SDS011;4394;51.208;8.904;2023-09-19T15:57:03;7.07;;;1.93;;
8714;SDS011;4394;51.208;8.904;2023-09-19T15:59:51;4.43;;;1.73;;
8714;SDS011;4394;51.208;8.904;2023-09-19T16:02:40;3.27;;;1.70;;
8714;SDS011;4394;51.208;8.904;2023-09-19T16:05:34;4.17;;;2.13;;
8714;SDS011;4394;51.208;8.904;2023-09-19T16:08:23;4.03;;;1.80;;
8714;SDS011;4394;51.208;8.904;2023-09-19T16:11:12;5.40;;;2.03;;
8714;SDS011;4394;51.208;8.904;2023-09-19T16:14:00;3.43;;;1.60;;
8714;SDS011;4394;51.208;8.904;2023-09-19T16:16:49;4.37;;;1.63;;
8714;SDS011;4394;51.208;8.904;2023-09-19T16:19:39;2.83;;;1.67;;
8714;SDS011;4394;51.208;8.904;2023-09-19T16:22:28;6.83;;;1.77;;
8714;SDS011;4394;51.208;8.904;2023-09-19T16:25:18;3.53;;;1.63;;
8714;SDS011;4394;51.208;8.904;2023-09-19T16:28:06;3.70;;;1.63;;
8714;SDS011;4394;51.208;8.904;2023-09-19T16:30:54;2.90;;;1.50;;
8714;SDS011;4394;51.208;8.904;2023-09-19T16:33:46;2.67;;;1.80;;
8714;SDS011;4394;51.208;8.904;2023-09-19T16:36:36;5.03;;;1.70;;
8714;SDS011;4394;51.208;8.904;2023-09-19T16:39:25;2.67;;;1.70;;
8714;SDS011;4394;51.208;8.904;2023-09-19T16:42:13;4.90;;;1.50;;
8714;SDS011;4394;51.208;8.904;2023-09-19T16:45:07;3.43;;;1.57;;
8714;SDS011;4394;51.208;8.904;2023-09-19T16:47:56;5.70;;;1.98;;
8714;SDS011;4394;51.208;8.904;2023-09-19T16:50:45;5.07;;;1.50;;
8714;SDS011;4394;51.208;8.904;2023-09-19T16:53:34;5.93;;;2.10;;
8714;SDS011;4394;51.208;8.904;2023-09-19T16:56:22;3.57;;;1.57;;
8714;SDS011;4394;51.208;8.904;2023-09-19T16:59:11;3.80;;;1.67;;
8714;SDS011;4394;51.208;8.904;2023-09-19T17:01:59;2.50;;;1.30;;
8714;SDS011;4394;51.208;8.904;2023-09-19T17:04:47;2.30;;;1.60;;
8714;SDS011;4394;51.208;8.904;2023-09-19T17:07:35;3.10;;;1.60;;
8714;SDS011;4394;51.208;8.904;2023-09-19T17:10:27;3.47;;;1.50;;
8714;SDS011;4394;51.208;8.904;2023-09-19T17:13:17;3.20;;;1.47;;
8714;SDS011;4394;51.208;8.904;2023-09-19T17:16:05;3.50;;;1.60;;
8714;SDS011;4394;51.208;8.904;2023-09-19T17:18:55;3.00;;;1.40;;
8714;SDS011;4394;51.208;8.904;2023-09-19T17:21:44;3.10;;;1.43;;
8714;SDS011;4394;51.208;8.904;2023-09-19T17:24:32;3.60;;;1.73;;
8714;SDS011;4394;51.208;8.904;2023-09-19T17:27:21;3.27;;;1.43;;
8714;SDS011;4394;51.208;8.904;2023-09-19T17:30:10;3.10;;;1.50;;
8714;SDS011;4394;51.208;8.904;2023-09-19T17:33:01;2.93;;;1.53;;
8714;SDS011;4394;51.208;8.904;2023-09-19T17:35:50;3.47;;;1.43;;
8714;SDS011;4394;51.208;8.904;2023-09-19T17:38:39;3.47;;;1.47;;
8714;SDS011;4394;51.208;8.904;2023-09-19T17:41:27;2.60;;;1.20;;
8714;SDS011;4394;51.208;8.904;2023-09-19T17:44:16;2.37;;;1.40;;
8714;SDS011;4394;51.208;8.904;2023-09-19T17:47:05;2.57;;;1.23;;
8714;SDS011;4394;51.208;8.904;2023-09-19T17:49:53;2.80;;;1.50;;
8714;SDS011;4394;51.208;8.904;2023-09-19T17:52:41;3.73;;;1.20;;
8714;SDS011;4394;51.208;8.904;2023-09-19T17:55:30;2.17;;;1.13;;
8714;SDS011;4394;51.208;8.904;2023-09-19T17:58:18;3.70;;;1.40;;
8714;SDS011;4394;51.208;8.904;2023-09-19T18:01:08;3.30;;;1.57;;
8714;SDS011;4394;51.208;8.904;2023-09-19T18:03:58;2.40;;;1.20;;